AQQ10 IFIS: Internet Flight Information System
logo dgac
Martes 21 de Septiembre del 2021
Buscar por aerodromo o helipuerto
Ingrese nombre de aeródromo, localidad o designador OACI:
METAR del 21-09-2021 a las 12:00 UTC
Para mayor información visite www.meteochile.cl
METAR SCDA 211200Z 17004KT 9999 OVC027 16/09 Q1018
Viento: dirección 170 grados, velocidad 4 nudos
Visibilidad: 10 km o más
Nubes: Cubierto a 2700 pies sobre el nivel del aeródromo
Temperatura: 16 °C
Rocío: 9 °C
Humedad_relativa: 63%
Presión: 1018 hPa
METAR del 21-09-2021 a las 11:00 UTC
Para mayor información visite www.meteochile.cl
METAR SCDA 211100Z 17005KT 9999 OVC027 15/09 Q1017
Viento: dirección 170 grados, velocidad 5 nudos
Visibilidad: 10 km o más
Nubes: Cubierto a 2700 pies sobre el nivel del aeródromo
Temperatura: 15 °C
Rocío: 9 °C
Humedad_relativa: 67%
Presión: 1017 hPa
METAR del 21-09-2021 a las 10:00 UTC
Para mayor información visite www.meteochile.cl
METAR SCDA 211000Z 15005KT 9999 OVC028 15/09 Q1017
Viento: dirección 150 grados, velocidad 5 nudos
Visibilidad: 10 km o más
Nubes: Cubierto a 2800 pies sobre el nivel del aeródromo
Temperatura: 15 °C
Rocío: 9 °C
Humedad_relativa: 67%
Presión: 1017 hPa
METAR del 21-09-2021 a las 09:00 UTC
Para mayor información visite www.meteochile.cl
METAR SCDA 210900Z 13005KT 9999 OVC027 15/09 Q1017
Viento: dirección 130 grados, velocidad 5 nudos
Visibilidad: 10 km o más
Nubes: Cubierto a 2700 pies sobre el nivel del aeródromo
Temperatura: 15 °C
Rocío: 9 °C
Humedad_relativa: 67%
Presión: 1017 hPa
METAR del 21-09-2021 a las 08:00 UTC
Para mayor información visite www.meteochile.cl
METAR SCDA 210800Z 00000KT 9999 OVC028 15/09 Q1017
Visibilidad: 10 km o más
Nubes: Cubierto a 2800 pies sobre el nivel del aeródromo
Temperatura: 15 °C
Rocío: 9 °C
Humedad_relativa: 67%
Presión: 1017 hPa
METAR del 21-09-2021 a las 07:00 UTC
Para mayor información visite www.meteochile.cl
METAR SCDA 210700Z 00000KT 9999 OVC028 15/09 Q1017
Visibilidad: 10 km o más
Nubes: Cubierto a 2800 pies sobre el nivel del aeródromo
Temperatura: 15 °C
Rocío: 9 °C
Humedad_relativa: 67%
Presión: 1017 hPa
METAR del 21-09-2021 a las 06:00 UTC
Para mayor información visite www.meteochile.cl
METAR SCDA 210600Z 00000KT 9999 OVC029 15/10 Q1018
Visibilidad: 10 km o más
Nubes: Cubierto a 2900 pies sobre el nivel del aeródromo
Temperatura: 15 °C
Rocío: 10 °C
Humedad_relativa: 72%
Presión: 1018 hPa
METAR del 21-09-2021 a las 05:00 UTC
Para mayor información visite www.meteochile.cl
METAR SCDA 210500Z VRB02KT 9999 OVC029 15/10 Q1018
Viento: dirección variable, velocidad 2 nudos
Visibilidad: 10 km o más
Nubes: Cubierto a 2900 pies sobre el nivel del aeródromo
Temperatura: 15 °C
Rocío: 10 °C
Humedad_relativa: 72%
Presión: 1018 hPa
METAR del 21-09-2021 a las 04:00 UTC
Para mayor información visite www.meteochile.cl
METAR SCDA 210400Z 03002KT 9999 OVC031 15/10 Q1019
Viento: dirección 030 grados, velocidad 2 nudos
Visibilidad: 10 km o más
Nubes: Cubierto a 3100 pies sobre el nivel del aeródromo
Temperatura: 15 °C
Rocío: 10 °C
Humedad_relativa: 72%
Presión: 1019 hPa
METAR del 21-09-2021 a las 03:00 UTC
Para mayor información visite www.meteochile.cl
METAR SCDA 210300Z 03003KT 9999 OVC030 15/10 Q1019
Viento: dirección 030 grados, velocidad 3 nudos
Visibilidad: 10 km o más
Nubes: Cubierto a 3000 pies sobre el nivel del aeródromo
Temperatura: 15 °C
Rocío: 10 °C
Humedad_relativa: 72%
Presión: 1019 hPa